sensor_id;sensor_type;location;lat;lon;timestamp;P1;durP1;ratioP1;P2;durP2;ratioP2
2906;SDS011;1463;51.070;16.998;2023-04-24T00:01:26;20.50;;;11.75;;
2906;SDS011;1463;51.070;16.998;2023-04-24T00:03:56;15.32;;;10.27;;
2906;SDS011;1463;51.070;16.998;2023-04-24T00:06:24;14.25;;;9.85;;
2906;SDS011;1463;51.070;16.998;2023-04-24T00:08:58;14.25;;;9.60;;
2906;SDS011;1463;51.070;16.998;2023-04-24T00:11:27;14.77;;;10.38;;
2906;SDS011;1463;51.070;16.998;2023-04-24T00:13:55;14.82;;;8.95;;
2906;SDS011;1463;51.070;16.998;2023-04-24T00:16:22;16.80;;;10.10;;
2906;SDS011;1463;51.070;16.998;2023-04-24T00:18:50;16.08;;;10.45;;
2906;SDS011;1463;51.070;16.998;2023-04-24T00:21:17;16.08;;;9.50;;
2906;SDS011;1463;51.070;16.998;2023-04-24T00:23:45;12.55;;;9.13;;
2906;SDS011;1463;51.070;16.998;2023-04-24T00:26:13;14.35;;;9.38;;
2906;SDS011;1463;51.070;16.998;2023-04-24T00:28:41;12.93;;;9.48;;
2906;SDS011;1463;51.070;16.998;2023-04-24T00:31:09;14.23;;;9.50;;
2906;SDS011;1463;51.070;16.998;2023-04-24T00:33:36;14.63;;;9.60;;
2906;SDS011;1463;51.070;16.998;2023-04-24T00:36:04;16.73;;;9.95;;
2906;SDS011;1463;51.070;16.998;2023-04-24T00:38:32;13.25;;;9.75;;
2906;SDS011;1463;51.070;16.998;2023-04-24T00:40:59;17.20;;;12.55;;
2906;SDS011;1463;51.070;16.998;2023-04-24T00:43:27;14.60;;;9.70;;
2906;SDS011;1463;51.070;16.998;2023-04-24T00:45:56;21.58;;;11.65;;
2906;SDS011;1463;51.070;16.998;2023-04-24T00:48:24;16.58;;;9.90;;
2906;SDS011;1463;51.070;16.998;2023-04-24T00:50:52;16.65;;;9.45;;
2906;SDS011;1463;51.070;16.998;2023-04-24T00:53:20;14.75;;;9.82;;
2906;SDS011;1463;51.070;16.998;2023-04-24T00:55:48;12.85;;;8.80;;
2906;SDS011;1463;51.070;16.998;2023-04-24T00:58:15;10.85;;;8.63;;
2906;SDS011;1463;51.070;16.998;2023-04-24T01:00:43;17.00;;;10.85;;
2906;SDS011;1463;51.070;16.998;2023-04-24T01:03:12;15.98;;;9.77;;
2906;SDS011;1463;51.070;16.998;2023-04-24T01:05:40;15.88;;;8.25;;
2906;SDS011;1463;51.070;16.998;2023-04-24T01:08:08;12.90;;;8.77;;
2906;SDS011;1463;51.070;16.998;2023-04-24T01:10:36;13.35;;;8.88;;
2906;SDS011;1463;51.070;16.998;2023-04-24T01:13:05;11.93;;;7.80;;
2906;SDS011;1463;51.070;16.998;2023-04-24T01:15:35;11.15;;;7.88;;
2906;SDS011;1463;51.070;16.998;2023-04-24T01:18:02;14.52;;;8.90;;
2906;SDS011;1463;51.070;16.998;2023-04-24T01:20:32;14.15;;;8.93;;
2906;SDS011;1463;51.070;16.998;2023-04-24T01:23:03;13.10;;;9.30;;
2906;SDS011;1463;51.070;16.998;2023-04-24T01:25:30;14.20;;;8.80;;
2906;SDS011;1463;51.070;16.998;2023-04-24T01:27:58;12.48;;;8.15;;
2906;SDS011;1463;51.070;16.998;2023-04-24T01:30:26;14.65;;;9.20;;
2906;SDS011;1463;51.070;16.998;2023-04-24T01:32:54;12.77;;;8.15;;
2906;SDS011;1463;51.070;16.998;2023-04-24T01:35:22;14.25;;;9.02;;
2906;SDS011;1463;51.070;16.998;2023-04-24T01:37:50;12.05;;;8.50;;
2906;SDS011;1463;51.070;16.998;2023-04-24T01:40:19;11.95;;;8.65;;
2906;SDS011;1463;51.070;16.998;2023-04-24T01:42:46;12.43;;;8.25;;
2906;SDS011;1463;51.070;16.998;2023-04-24T01:45:14;14.43;;;10.52;;
2906;SDS011;1463;51.070;16.998;2023-04-24T01:47:41;13.18;;;9.32;;
2906;SDS011;1463;51.070;16.998;2023-04-24T01:50:09;14.77;;;8.90;;
2906;SDS011;1463;51.070;16.998;2023-04-24T01:52:37;15.50;;;9.93;;
2906;SDS011;1463;51.070;16.998;2023-04-24T01:55:05;15.73;;;10.20;;
2906;SDS011;1463;51.070;16.998;2023-04-24T01:57:35;13.00;;;9.73;;
2906;SDS011;1463;51.070;16.998;2023-04-24T02:00:03;14.95;;;9.60;;
2906;SDS011;1463;51.070;16.998;2023-04-24T02:02:32;14.82;;;8.50;;
2906;SDS011;1463;51.070;16.998;2023-04-24T02:04:59;15.63;;;8.88;;
2906;SDS011;1463;51.070;16.998;2023-04-24T02:07:28;13.55;;;8.85;;
2906;SDS011;1463;51.070;16.998;2023-04-24T02:09:55;15.05;;;9.77;;
2906;SDS011;1463;51.070;16.998;2023-04-24T02:12:22;13.50;;;8.85;;
2906;SDS011;1463;51.070;16.998;2023-04-24T02:14:51;14.00;;;8.82;;
2906;SDS011;1463;51.070;16.998;2023-04-24T02:17:19;17.70;;;9.18;;
2906;SDS011;1463;51.070;16.998;2023-04-24T02:19:46;13.68;;;8.80;;
2906;SDS011;1463;51.070;16.998;2023-04-24T02:22:14;12.77;;;8.45;;
2906;SDS011;1463;51.070;16.998;2023-04-24T02:24:41;14.35;;;8.80;;
2906;SDS011;1463;51.070;16.998;2023-04-24T02:27:08;11.63;;;7.70;;
2906;SDS011;1463;51.070;16.998;2023-04-24T02:29:36;13.57;;;8.50;;
2906;SDS011;1463;51.070;16.998;2023-04-24T02:32:05;14.40;;;8.98;;
2906;SDS011;1463;51.070;16.998;2023-04-24T02:34:36;14.40;;;9.15;;
2906;SDS011;1463;51.070;16.998;2023-04-24T02:37:04;15.32;;;9.05;;
2906;SDS011;1463;51.070;16.998;2023-04-24T02:39:31;11.13;;;7.90;;
2906;SDS011;1463;51.070;16.998;2023-04-24T02:41:58;14.07;;;9.43;;
2906;SDS011;1463;51.070;16.998;2023-04-24T02:44:26;16.60;;;9.48;;
2906;SDS011;1463;51.070;16.998;2023-04-24T02:46:54;12.20;;;9.02;;
2906;SDS011;1463;51.070;16.998;2023-04-24T02:49:23;13.68;;;9.30;;
2906;SDS011;1463;51.070;16.998;2023-04-24T02:51:51;17.33;;;9.57;;
2906;SDS011;1463;51.070;16.998;2023-04-24T02:54:18;11.15;;;8.65;;
2906;SDS011;1463;51.070;16.998;2023-04-24T02:56:45;17.63;;;9.98;;
2906;SDS011;1463;51.070;16.998;2023-04-24T02:59:13;14.32;;;8.43;;
2906;SDS011;1463;51.070;16.998;2023-04-24T03:01:40;11.57;;;7.97;;
2906;SDS011;1463;51.070;16.998;2023-04-24T03:04:07;13.02;;;9.63;;
2906;SDS011;1463;51.070;16.998;2023-04-24T03:06:36;11.98;;;9.05;;
2906;SDS011;1463;51.070;16.998;2023-04-24T03:09:04;18.00;;;8.50;;
2906;SDS011;1463;51.070;16.998;2023-04-24T03:11:31;12.32;;;8.40;;
2906;SDS011;1463;51.070;16.998;2023-04-24T03:13:59;12.80;;;8.15;;
2906;SDS011;1463;51.070;16.998;2023-04-24T03:16:26;12.13;;;8.85;;
2906;SDS011;1463;51.070;16.998;2023-04-24T03:18:53;12.52;;;8.55;;
2906;SDS011;1463;51.070;16.998;2023-04-24T03:21:21;10.68;;;7.78;;
2906;SDS011;1463;51.070;16.998;2023-04-24T03:23:50;14.00;;;8.27;;
2906;SDS011;1463;51.070;16.998;2023-04-24T03:26:18;13.32;;;8.13;;
2906;SDS011;1463;51.070;16.998;2023-04-24T03:28:45;11.45;;;6.97;;
2906;SDS011;1463;51.070;16.998;2023-04-24T03:31:13;9.40;;;7.47;;
2906;SDS011;1463;51.070;16.998;2023-04-24T03:33:40;10.30;;;7.40;;
2906;SDS011;1463;51.070;16.998;2023-04-24T03:36:08;10.82;;;8.15;;
2906;SDS011;1463;51.070;16.998;2023-04-24T03:38:35;11.45;;;8.02;;
2906;SDS011;1463;51.070;16.998;2023-04-24T03:41:04;13.07;;;8.95;;
2906;SDS011;1463;51.070;16.998;2023-04-24T03:43:32;14.25;;;9.68;;
2906;SDS011;1463;51.070;16.998;2023-04-24T03:45:59;13.75;;;8.10;;
2906;SDS011;1463;51.070;16.998;2023-04-24T03:48:28;11.75;;;8.82;;
2906;SDS011;1463;51.070;16.998;2023-04-24T03:50:55;14.00;;;9.30;;
2906;SDS011;1463;51.070;16.998;2023-04-24T03:53:23;11.77;;;8.45;;
2906;SDS011;1463;51.070;16.998;2023-04-24T03:55:51;13.60;;;9.13;;
2906;SDS011;1463;51.070;16.998;2023-04-24T03:58:21;12.73;;;8.50;;
2906;SDS011;1463;51.070;16.998;2023-04-24T04:00:49;11.55;;;8.93;;
2906;SDS011;1463;51.070;16.998;2023-04-24T04:03:16;10.95;;;8.00;;
2906;SDS011;1463;51.070;16.998;2023-04-24T04:05:44;9.98;;;7.45;;
2906;SDS011;1463;51.070;16.998;2023-04-24T04:08:11;16.42;;;9.07;;
2906;SDS011;1463;51.070;16.998;2023-04-24T04:10:38;13.25;;;8.20;;
2906;SDS011;1463;51.070;16.998;2023-04-24T04:13:06;16.92;;;9.65;;
2906;SDS011;1463;51.070;16.998;2023-04-24T04:15:35;11.45;;;8.10;;
2906;SDS011;1463;51.070;16.998;2023-04-24T04:18:02;10.85;;;7.95;;
2906;SDS011;1463;51.070;16.998;2023-04-24T04:20:30;10.30;;;7.43;;
2906;SDS011;1463;51.070;16.998;2023-04-24T04:22:58;9.43;;;6.28;;
2906;SDS011;1463;51.070;16.998;2023-04-24T04:25:25;13.85;;;8.00;;
2906;SDS011;1463;51.070;16.998;2023-04-24T04:27:52;8.60;;;6.70;;
2906;SDS011;1463;51.070;16.998;2023-04-24T04:30:20;11.38;;;6.80;;
2906;SDS011;1463;51.070;16.998;2023-04-24T04:32:50;14.38;;;7.30;;
2906;SDS011;1463;51.070;16.998;2023-04-24T04:35:17;11.63;;;6.95;;
2906;SDS011;1463;51.070;16.998;2023-04-24T04:37:44;10.55;;;6.80;;
2906;SDS011;1463;51.070;16.998;2023-04-24T04:40:12;8.45;;;6.75;;
2906;SDS011;1463;51.070;16.998;2023-04-24T04:42:40;11.10;;;7.60;;
2906;SDS011;1463;51.070;16.998;2023-04-24T04:45:08;10.02;;;7.18;;
2906;SDS011;1463;51.070;16.998;2023-04-24T04:47:36;10.02;;;7.78;;
2906;SDS011;1463;51.070;16.998;2023-04-24T04:50:06;11.40;;;7.70;;
2906;SDS011;1463;51.070;16.998;2023-04-24T04:52:34;12.20;;;6.95;;
2906;SDS011;1463;51.070;16.998;2023-04-24T04:55:02;10.75;;;7.72;;
2906;SDS011;1463;51.070;16.998;2023-04-24T04:57:30;12.43;;;8.10;;
2906;SDS011;1463;51.070;16.998;2023-04-24T04:59:57;11.85;;;8.32;;
2906;SDS011;1463;51.070;16.998;2023-04-24T05:02:25;13.07;;;8.85;;
2906;SDS011;1463;51.070;16.998;2023-04-24T05:04:52;12.60;;;7.43;;
2906;SDS011;1463;51.070;16.998;2023-04-24T05:07:21;12.27;;;7.72;;
2906;SDS011;1463;51.070;16.998;2023-04-24T05:09:49;13.57;;;8.52;;
2906;SDS011;1463;51.070;16.998;2023-04-24T05:12:17;7.90;;;6.85;;
2906;SDS011;1463;51.070;16.998;2023-04-24T05:14:44;11.00;;;7.03;;
2906;SDS011;1463;51.070;16.998;2023-04-24T05:17:12;11.48;;;7.80;;
2906;SDS011;1463;51.070;16.998;2023-04-24T05:19:40;8.23;;;6.55;;
2906;SDS011;1463;51.070;16.998;2023-04-24T05:22:07;13.27;;;7.88;;
2906;SDS011;1463;51.070;16.998;2023-04-24T05:24:37;9.27;;;7.20;;
2906;SDS011;1463;51.070;16.998;2023-04-24T05:27:04;13.20;;;8.32;;
2906;SDS011;1463;51.070;16.998;2023-04-24T05:29:32;11.93;;;8.18;;
2906;SDS011;1463;51.070;16.998;2023-04-24T05:31:59;11.20;;;7.72;;
2906;SDS011;1463;51.070;16.998;2023-04-24T05:34:27;13.50;;;7.78;;
2906;SDS011;1463;51.070;16.998;2023-04-24T05:36:54;15.90;;;7.47;;
2906;SDS011;1463;51.070;16.998;2023-04-24T05:39:22;10.60;;;6.93;;
2906;SDS011;1463;51.070;16.998;2023-04-24T05:41:51;11.43;;;6.95;;
2906;SDS011;1463;51.070;16.998;2023-04-24T05:44:19;18.52;;;6.68;;
2906;SDS011;1463;51.070;16.998;2023-04-24T05:46:46;10.95;;;6.10;;
2906;SDS011;1463;51.070;16.998;2023-04-24T05:49:13;7.93;;;6.43;;
2906;SDS011;1463;51.070;16.998;2023-04-24T05:51:41;7.43;;;5.63;;
2906;SDS011;1463;51.070;16.998;2023-04-24T05:54:08;8.05;;;6.38;;
2906;SDS011;1463;51.070;16.998;2023-04-24T05:56:37;9.57;;;5.70;;
2906;SDS011;1463;51.070;16.998;2023-04-24T05:59:06;7.88;;;4.93;;
2906;SDS011;1463;51.070;16.998;2023-04-24T06:01:34;13.85;;;5.25;;
2906;SDS011;1463;51.070;16.998;2023-04-24T06:04:02;6.57;;;4.65;;
2906;SDS011;1463;51.070;16.998;2023-04-24T06:06:29;7.30;;;4.70;;
2906;SDS011;1463;51.070;16.998;2023-04-24T06:08:57;5.93;;;4.50;;
2906;SDS011;1463;51.070;16.998;2023-04-24T06:11:25;7.85;;;4.57;;
2906;SDS011;1463;51.070;16.998;2023-04-24T06:13:52;7.90;;;4.70;;
2906;SDS011;1463;51.070;16.998;2023-04-24T06:16:21;13.38;;;5.32;;
2906;SDS011;1463;51.070;16.998;2023-04-24T06:18:48;7.57;;;4.40;;
2906;SDS011;1463;51.070;16.998;2023-04-24T06:21:16;6.65;;;4.70;;
2906;SDS011;1463;51.070;16.998;2023-04-24T06:23:43;6.50;;;4.97;;
2906;SDS011;1463;51.070;16.998;2023-04-24T06:26:11;9.13;;;4.50;;
2906;SDS011;1463;51.070;16.998;2023-04-24T06:28:39;6.38;;;5.00;;
2906;SDS011;1463;51.070;16.998;2023-04-24T06:31:07;7.05;;;4.57;;
2906;SDS011;1463;51.070;16.998;2023-04-24T06:33:36;5.28;;;4.40;;
2906;SDS011;1463;51.070;16.998;2023-04-24T06:36:03;7.55;;;4.50;;
2906;SDS011;1463;51.070;16.998;2023-04-24T06:38:31;10.07;;;6.10;;
2906;SDS011;1463;51.070;16.998;2023-04-24T06:40:59;5.82;;;4.57;;
2906;SDS011;1463;51.070;16.998;2023-04-24T06:43:26;7.03;;;5.28;;
2906;SDS011;1463;51.070;16.998;2023-04-24T06:45:54;7.40;;;4.97;;
2906;SDS011;1463;51.070;16.998;2023-04-24T06:48:21;5.45;;;4.80;;
2906;SDS011;1463;51.070;16.998;2023-04-24T06:50:50;8.90;;;5.32;;
2906;SDS011;1463;51.070;16.998;2023-04-24T06:53:17;7.70;;;5.03;;
2906;SDS011;1463;51.070;16.998;2023-04-24T06:55:45;10.20;;;4.97;;
2906;SDS011;1463;51.070;16.998;2023-04-24T06:58:12;8.20;;;4.57;;
2906;SDS011;1463;51.070;16.998;2023-04-24T07:00:40;5.70;;;4.80;;
2906;SDS011;1463;51.070;16.998;2023-04-24T07:03:07;6.60;;;4.72;;
2906;SDS011;1463;51.070;16.998;2023-04-24T07:05:35;9.05;;;4.95;;
2906;SDS011;1463;51.070;16.998;2023-04-24T07:08:04;8.27;;;5.35;;
2906;SDS011;1463;51.070;16.998;2023-04-24T07:10:33;11.88;;;6.13;;
2906;SDS011;1463;51.070;16.998;2023-04-24T07:13:01;7.57;;;5.47;;
2906;SDS011;1463;51.070;16.998;2023-04-24T07:15:28;7.07;;;5.10;;
2906;SDS011;1463;51.070;16.998;2023-04-24T07:17:57;6.80;;;5.40;;
2906;SDS011;1463;51.070;16.998;2023-04-24T07:20:25;6.50;;;4.70;;
2906;SDS011;1463;51.070;16.998;2023-04-24T07:22:52;6.95;;;5.15;;
2906;SDS011;1463;51.070;16.998;2023-04-24T07:25:21;8.27;;;5.20;;
2906;SDS011;1463;51.070;16.998;2023-04-24T07:27:48;9.90;;;6.65;;
2906;SDS011;1463;51.070;16.998;2023-04-24T07:30:16;10.38;;;5.97;;
2906;SDS011;1463;51.070;16.998;2023-04-24T07:32:43;10.32;;;5.57;;
2906;SDS011;1463;51.070;16.998;2023-04-24T07:35:11;7.43;;;5.38;;
2906;SDS011;1463;51.070;16.998;2023-04-24T07:37:38;8.77;;;5.20;;
2906;SDS011;1463;51.070;16.998;2023-04-24T07:40:11;7.90;;;4.43;;
2906;SDS011;1463;51.070;16.998;2023-04-24T07:42:40;10.75;;;5.15;;
2906;SDS011;1463;51.070;16.998;2023-04-24T07:45:09;7.70;;;5.13;;
2906;SDS011;1463;51.070;16.998;2023-04-24T07:47:36;7.97;;;5.03;;
2906;SDS011;1463;51.070;16.998;2023-04-24T07:50:05;6.10;;;4.25;;
2906;SDS011;1463;51.070;16.998;2023-04-24T07:52:33;7.63;;;5.20;;
2906;SDS011;1463;51.070;16.998;2023-04-24T07:55:00;9.02;;;5.45;;
2906;SDS011;1463;51.070;16.998;2023-04-24T07:57:28;7.05;;;4.57;;
2906;SDS011;1463;51.070;16.998;2023-04-24T07:59:57;7.80;;;5.38;;
2906;SDS011;1463;51.070;16.998;2023-04-24T08:02:24;7.75;;;4.80;;
2906;SDS011;1463;51.070;16.998;2023-04-24T08:04:52;5.22;;;4.30;;
2906;SDS011;1463;51.070;16.998;2023-04-24T08:07:20;8.10;;;4.55;;
2906;SDS011;1463;51.070;16.998;2023-04-24T08:09:47;8.55;;;5.85;;
2906;SDS011;1463;51.070;16.998;2023-04-24T08:12:15;8.15;;;4.38;;
2906;SDS011;1463;51.070;16.998;2023-04-24T08:14:42;9.45;;;4.80;;
2906;SDS011;1463;51.070;16.998;2023-04-24T08:17:11;5.20;;;3.70;;
2906;SDS011;1463;51.070;16.998;2023-04-24T08:19:39;16.00;;;7.68;;
2906;SDS011;1463;51.070;16.998;2023-04-24T08:22:12;8.70;;;4.82;;
2906;SDS011;1463;51.070;16.998;2023-04-24T08:24:40;5.60;;;3.92;;
2906;SDS011;1463;51.070;16.998;2023-04-24T08:27:08;4.93;;;3.25;;
2906;SDS011;1463;51.070;16.998;2023-04-24T08:29:35;5.72;;;4.00;;
2906;SDS011;1463;51.070;16.998;2023-04-24T08:32:03;6.88;;;4.35;;
2906;SDS011;1463;51.070;16.998;2023-04-24T08:34:32;6.15;;;3.80;;
2906;SDS011;1463;51.070;16.998;2023-04-24T08:36:59;8.65;;;4.10;;
2906;SDS011;1463;51.070;16.998;2023-04-24T08:39:26;5.45;;;3.45;;
2906;SDS011;1463;51.070;16.998;2023-04-24T08:41:54;5.13;;;3.50;;
2906;SDS011;1463;51.070;16.998;2023-04-24T08:44:22;8.52;;;3.47;;
2906;SDS011;1463;51.070;16.998;2023-04-24T08:46:50;5.47;;;3.85;;
2906;SDS011;1463;51.070;16.998;2023-04-24T08:49:18;5.25;;;3.58;;
2906;SDS011;1463;51.070;16.998;2023-04-24T08:51:48;5.18;;;3.63;;
2906;SDS011;1463;51.070;16.998;2023-04-24T08:54:17;5.75;;;3.63;;
2906;SDS011;1463;51.070;16.998;2023-04-24T08:56:45;4.65;;;3.85;;
2906;SDS011;1463;51.070;16.998;2023-04-24T08:59:15;5.32;;;4.15;;
2906;SDS011;1463;51.070;16.998;2023-04-24T09:01:42;6.40;;;3.95;;
2906;SDS011;1463;51.070;16.998;2023-04-24T09:04:12;6.97;;;4.13;;
2906;SDS011;1463;51.070;16.998;2023-04-24T09:06:43;5.72;;;3.47;;
2906;SDS011;1463;51.070;16.998;2023-04-24T09:09:12;5.65;;;4.40;;
2906;SDS011;1463;51.070;16.998;2023-04-24T09:11:40;7.00;;;4.10;;
2906;SDS011;1463;51.070;16.998;2023-04-24T09:14:08;6.28;;;3.80;;
2906;SDS011;1463;51.070;16.998;2023-04-24T09:16:37;6.53;;;4.70;;
2906;SDS011;1463;51.070;16.998;2023-04-24T09:19:04;7.70;;;3.70;;
2906;SDS011;1463;51.070;16.998;2023-04-24T09:21:32;6.70;;;4.10;;
2906;SDS011;1463;51.070;16.998;2023-04-24T09:24:01;4.87;;;3.80;;
2906;SDS011;1463;51.070;16.998;2023-04-24T09:26:32;4.87;;;3.77;;
2906;SDS011;1463;51.070;16.998;2023-04-24T09:29:02;5.97;;;3.93;;
2906;SDS011;1463;51.070;16.998;2023-04-24T09:31:30;4.77;;;3.97;;
2906;SDS011;1463;51.070;16.998;2023-04-24T09:33:58;5.30;;;3.70;;
2906;SDS011;1463;51.070;16.998;2023-04-24T09:36:28;6.20;;;3.80;;
2906;SDS011;1463;51.070;16.998;2023-04-24T09:38:58;5.20;;;4.07;;
2906;SDS011;1463;51.070;16.998;2023-04-24T09:41:27;6.90;;;4.10;;
2906;SDS011;1463;51.070;16.998;2023-04-24T09:43:56;5.67;;;4.50;;
2906;SDS011;1463;51.070;16.998;2023-04-24T09:46:31;7.30;;;4.80;;
2906;SDS011;1463;51.070;16.998;2023-04-24T09:49:03;8.00;;;4.60;;
2906;SDS011;1463;51.070;16.998;2023-04-24T09:51:36;6.30;;;4.47;;
2906;SDS011;1463;51.070;16.998;2023-04-24T09:54:04;6.17;;;4.53;;
2906;SDS011;1463;51.070;16.998;2023-04-24T09:56:41;5.77;;;4.43;;
2906;SDS011;1463;51.070;16.998;2023-04-24T09:59:12;6.57;;;4.40;;
2906;SDS011;1463;51.070;16.998;2023-04-24T10:01:40;6.60;;;4.30;;
2906;SDS011;1463;51.070;16.998;2023-04-24T10:04:16;7.87;;;5.57;;
2906;SDS011;1463;51.070;16.998;2023-04-24T10:06:49;5.37;;;4.13;;
2906;SDS011;1463;51.070;16.998;2023-04-24T10:09:32;6.90;;;5.47;;
2906;SDS011;1463;51.070;16.998;2023-04-24T10:12:00;6.40;;;4.45;;
2906;SDS011;1463;51.070;16.998;2023-04-24T10:14:30;7.57;;;4.65;;
2906;SDS011;1463;51.070;16.998;2023-04-24T10:16:57;6.90;;;4.47;;
2906;SDS011;1463;51.070;16.998;2023-04-24T10:19:25;5.80;;;4.27;;
2906;SDS011;1463;51.070;16.998;2023-04-24T10:21:53;9.53;;;5.60;;
2906;SDS011;1463;51.070;16.998;2023-04-24T10:24:21;7.80;;;5.20;;
2906;SDS011;1463;51.070;16.998;2023-04-24T10:26:49;6.68;;;4.85;;
2906;SDS011;1463;51.070;16.998;2023-04-24T10:29:19;7.97;;;5.25;;
2906;SDS011;1463;51.070;16.998;2023-04-24T10:31:55;7.67;;;5.13;;
2906;SDS011;1463;51.070;16.998;2023-04-24T10:34:22;8.07;;;5.10;;
2906;SDS011;1463;51.070;16.998;2023-04-24T10:36:51;10.33;;;5.13;;
2906;SDS011;1463;51.070;16.998;2023-04-24T10:39:19;5.50;;;3.55;;
2906;SDS011;1463;51.070;16.998;2023-04-24T10:41:48;6.60;;;4.47;;
2906;SDS011;1463;51.070;16.998;2023-04-24T10:44:16;5.55;;;4.32;;
2906;SDS011;1463;51.070;16.998;2023-04-24T10:46:44;6.87;;;5.00;;
2906;SDS011;1463;51.070;16.998;2023-04-24T10:49:14;7.38;;;4.57;;
2906;SDS011;1463;51.070;16.998;2023-04-24T10:51:49;9.02;;;4.82;;
2906;SDS011;1463;51.070;16.998;2023-04-24T10:54:21;7.03;;;5.33;;
2906;SDS011;1463;51.070;16.998;2023-04-24T10:56:50;9.43;;;5.43;;
2906;SDS011;1463;51.070;16.998;2023-04-24T10:59:24;7.10;;;5.28;;
2906;SDS011;1463;51.070;16.998;2023-04-24T11:01:52;6.70;;;5.00;;
2906;SDS011;1463;51.070;16.998;2023-04-24T11:04:30;7.53;;;5.50;;
2906;SDS011;1463;51.070;16.998;2023-04-24T11:07:00;7.25;;;5.32;;
2906;SDS011;1463;51.070;16.998;2023-04-24T11:09:30;7.85;;;5.13;;
2906;SDS011;1463;51.070;16.998;2023-04-24T11:12:04;7.53;;;5.13;;
2906;SDS011;1463;51.070;16.998;2023-04-24T11:17:28;5.90;;;4.85;;
2906;SDS011;1463;51.070;16.998;2023-04-24T11:20:02;6.80;;;5.40;;
2906;SDS011;1463;51.070;16.998;2023-04-24T11:22:32;7.25;;;5.13;;
2906;SDS011;1463;51.070;16.998;2023-04-24T11:25:01;8.18;;;5.43;;
2906;SDS011;1463;51.070;16.998;2023-04-24T11:27:30;8.68;;;5.35;;
2906;SDS011;1463;51.070;16.998;2023-04-24T11:30:05;7.75;;;5.40;;
2906;SDS011;1463;51.070;16.998;2023-04-24T11:32:35;7.40;;;5.13;;
2906;SDS011;1463;51.070;16.998;2023-04-24T11:35:05;9.85;;;6.15;;
2906;SDS011;1463;51.070;16.998;2023-04-24T11:37:35;9.63;;;5.57;;
2906;SDS011;1463;51.070;16.998;2023-04-24T11:40:05;7.82;;;4.82;;
2906;SDS011;1463;51.070;16.998;2023-04-24T11:42:34;6.90;;;5.33;;
2906;SDS011;1463;51.070;16.998;2023-04-24T11:45:07;10.10;;;5.40;;
2906;SDS011;1463;51.070;16.998;2023-04-24T11:47:35;6.00;;;4.70;;
2906;SDS011;1463;51.070;16.998;2023-04-24T11:50:06;7.17;;;5.03;;
2906;SDS011;1463;51.070;16.998;2023-04-24T11:52:36;5.23;;;3.80;;
2906;SDS011;1463;51.070;16.998;2023-04-24T11:55:06;9.27;;;6.27;;
2906;SDS011;1463;51.070;16.998;2023-04-24T11:57:35;6.03;;;4.70;;
2906;SDS011;1463;51.070;16.998;2023-04-24T12:00:02;5.57;;;4.43;;
2906;SDS011;1463;51.070;16.998;2023-04-24T12:02:31;7.90;;;5.03;;
2906;SDS011;1463;51.070;16.998;2023-04-24T12:04:59;6.20;;;4.67;;
2906;SDS011;1463;51.070;16.998;2023-04-24T12:07:27;7.03;;;4.57;;
2906;SDS011;1463;51.070;16.998;2023-04-24T12:09:56;7.30;;;4.63;;
2906;SDS011;1463;51.070;16.998;2023-04-24T12:12:25;5.03;;;3.50;;
2906;SDS011;1463;51.070;16.998;2023-04-24T12:14:55;6.43;;;4.03;;
2906;SDS011;1463;51.070;16.998;2023-04-24T12:17:24;6.10;;;4.15;;
2906;SDS011;1463;51.070;16.998;2023-04-24T12:19:56;7.82;;;4.00;;
2906;SDS011;1463;51.070;16.998;2023-04-24T12:22:25;6.85;;;3.80;;
2906;SDS011;1463;51.070;16.998;2023-04-24T12:24:58;6.85;;;3.35;;
2906;SDS011;1463;51.070;16.998;2023-04-24T12:27:30;6.72;;;3.30;;
2906;SDS011;1463;51.070;16.998;2023-04-24T12:29:59;5.50;;;3.70;;
2906;SDS011;1463;51.070;16.998;2023-04-24T12:32:29;5.90;;;4.18;;
2906;SDS011;1463;51.070;16.998;2023-04-24T12:34:57;7.63;;;4.22;;
2906;SDS011;1463;51.070;16.998;2023-04-24T12:37:25;9.77;;;4.38;;
2906;SDS011;1463;51.070;16.998;2023-04-24T12:40:01;6.80;;;4.28;;
2906;SDS011;1463;51.070;16.998;2023-04-24T12:42:31;5.20;;;4.05;;
2906;SDS011;1463;51.070;16.998;2023-04-24T12:44:59;5.80;;;4.18;;
2906;SDS011;1463;51.070;16.998;2023-04-24T12:47:28;8.02;;;4.30;;
2906;SDS011;1463;51.070;16.998;2023-04-24T12:49:56;8.20;;;3.90;;
2906;SDS011;1463;51.070;16.998;2023-04-24T12:52:24;6.55;;;4.50;;
2906;SDS011;1463;51.070;16.998;2023-04-24T12:54:54;6.07;;;3.60;;
2906;SDS011;1463;51.070;16.998;2023-04-24T12:57:24;6.03;;;3.53;;
2906;SDS011;1463;51.070;16.998;2023-04-24T12:59:53;6.32;;;4.03;;
2906;SDS011;1463;51.070;16.998;2023-04-24T13:02:22;5.55;;;4.18;;
2906;SDS011;1463;51.070;16.998;2023-04-24T13:04:51;6.10;;;4.35;;
2906;SDS011;1463;51.070;16.998;2023-04-24T13:07:19;5.88;;;3.33;;
2906;SDS011;1463;51.070;16.998;2023-04-24T13:09:48;3.20;;;2.40;;
2906;SDS011;1463;51.070;16.998;2023-04-24T13:12:17;5.32;;;2.50;;
2906;SDS011;1463;51.070;16.998;2023-04-24T13:14:46;2.85;;;1.80;;
2906;SDS011;1463;51.070;16.998;2023-04-24T13:17:13;3.20;;;1.92;;
2906;SDS011;1463;51.070;16.998;2023-04-24T13:19:42;5.65;;;2.65;;
2906;SDS011;1463;51.070;16.998;2023-04-24T13:22:11;5.25;;;2.78;;
2906;SDS011;1463;51.070;16.998;2023-04-24T13:24:39;9.00;;;2.90;;
2906;SDS011;1463;51.070;16.998;2023-04-24T13:27:07;3.30;;;2.05;;
2906;SDS011;1463;51.070;16.998;2023-04-24T13:29:36;3.55;;;2.47;;
2906;SDS011;1463;51.070;16.998;2023-04-24T13:32:04;3.90;;;2.00;;
2906;SDS011;1463;51.070;16.998;2023-04-24T13:34:32;3.78;;;1.70;;
2906;SDS011;1463;51.070;16.998;2023-04-24T13:37:00;5.82;;;2.10;;
2906;SDS011;1463;51.070;16.998;2023-04-24T13:39:28;3.50;;;2.10;;
2906;SDS011;1463;51.070;16.998;2023-04-24T13:41:56;3.70;;;2.13;;
2906;SDS011;1463;51.070;16.998;2023-04-24T13:44:24;4.43;;;2.20;;
2906;SDS011;1463;51.070;16.998;2023-04-24T13:46:54;3.75;;;2.05;;
2906;SDS011;1463;51.070;16.998;2023-04-24T13:49:22;6.95;;;2.50;;
2906;SDS011;1463;51.070;16.998;2023-04-24T13:51:51;5.50;;;2.50;;
2906;SDS011;1463;51.070;16.998;2023-04-24T13:54:19;3.47;;;2.03;;
2906;SDS011;1463;51.070;16.998;2023-04-24T13:56:48;3.67;;;2.17;;
2906;SDS011;1463;51.070;16.998;2023-04-24T13:59:16;5.00;;;2.20;;
2906;SDS011;1463;51.070;16.998;2023-04-24T14:01:43;4.45;;;2.35;;
2906;SDS011;1463;51.070;16.998;2023-04-24T14:04:12;3.10;;;1.65;;
2906;SDS011;1463;51.070;16.998;2023-04-24T14:06:40;3.08;;;1.70;;
2906;SDS011;1463;51.070;16.998;2023-04-24T14:09:07;3.00;;;1.95;;
2906;SDS011;1463;51.070;16.998;2023-04-24T14:11:35;2.83;;;1.90;;
2906;SDS011;1463;51.070;16.998;2023-04-24T14:14:02;3.28;;;1.60;;
2906;SDS011;1463;51.070;16.998;2023-04-24T14:16:30;2.47;;;1.67;;
2906;SDS011;1463;51.070;16.998;2023-04-24T14:18:58;2.90;;;2.03;;
2906;SDS011;1463;51.070;16.998;2023-04-24T14:21:27;4.75;;;2.00;;
2906;SDS011;1463;51.070;16.998;2023-04-24T14:23:55;2.67;;;1.73;;
2906;SDS011;1463;51.070;16.998;2023-04-24T14:26:26;3.53;;;1.73;;
2906;SDS011;1463;51.070;16.998;2023-04-24T14:28:53;3.80;;;2.08;;
2906;SDS011;1463;51.070;16.998;2023-04-24T14:31:21;3.40;;;1.85;;
2906;SDS011;1463;51.070;16.998;2023-04-24T14:33:48;6.30;;;2.15;;
2906;SDS011;1463;51.070;16.998;2023-04-24T14:36:16;3.42;;;2.17;;
2906;SDS011;1463;51.070;16.998;2023-04-24T14:38:45;2.40;;;1.83;;
2906;SDS011;1463;51.070;16.998;2023-04-24T14:41:12;4.88;;;2.47;;
2906;SDS011;1463;51.070;16.998;2023-04-24T14:43:40;3.97;;;2.10;;
2906;SDS011;1463;51.070;16.998;2023-04-24T14:46:07;5.85;;;2.50;;
2906;SDS011;1463;51.070;16.998;2023-04-24T14:48:35;4.25;;;2.33;;
2906;SDS011;1463;51.070;16.998;2023-04-24T14:51:02;3.00;;;2.15;;
2906;SDS011;1463;51.070;16.998;2023-04-24T14:53:30;5.30;;;2.35;;
2906;SDS011;1463;51.070;16.998;2023-04-24T14:55:59;3.85;;;2.80;;
2906;SDS011;1463;51.070;16.998;2023-04-24T14:58:27;4.53;;;2.30;;
2906;SDS011;1463;51.070;16.998;2023-04-24T15:00:54;3.70;;;1.88;;
2906;SDS011;1463;51.070;16.998;2023-04-24T15:03:21;3.00;;;1.95;;
2906;SDS011;1463;51.070;16.998;2023-04-24T15:05:49;2.17;;;1.20;;